sensor_id;sensor_type;location;lat;lon;timestamp;pressure;altitude;pressure_sealevel;temperature;humidity
74422;BME280;62856;51.446;8.360;2022-09-09T00:03:47;97299.50;;;14.15;83.59
74422;BME280;62856;51.446;8.360;2022-09-09T00:06:24;97293.41;;;14.18;83.65
74422;BME280;62856;51.446;8.360;2022-09-09T00:11:29;97295.00;;;14.28;83.38
74422;BME280;62856;51.446;8.360;2022-09-09T00:13:58;97291.19;;;14.29;83.22
74422;BME280;62856;51.446;8.360;2022-09-09T00:16:28;97291.81;;;14.26;82.96
74422;BME280;62856;51.446;8.360;2022-09-09T00:21:34;97281.59;;;14.31;83.21
74422;BME280;62856;51.446;8.360;2022-09-09T00:24:08;97288.78;;;14.36;82.49
74422;BME280;62856;51.446;8.360;2022-09-09T00:26:36;97294.00;;;14.41;82.57
74422;BME280;62856;51.446;8.360;2022-09-09T00:31:38;97287.16;;;14.35;83.50
74422;BME280;62856;51.446;8.360;2022-09-09T00:34:21;97301.00;;;14.42;82.32
74422;BME280;62856;51.446;8.360;2022-09-09T00:36:49;97274.94;;;14.29;82.89
74422;BME280;62856;51.446;8.360;2022-09-09T00:39:30;97301.34;;;14.41;83.33
74422;BME280;62856;51.446;8.360;2022-09-09T00:47:38;97298.34;;;14.25;84.38
74422;BME280;62856;51.446;8.360;2022-09-09T00:53:10;97284.09;;;13.99;84.10
74422;BME280;62856;51.446;8.360;2022-09-09T00:55:54;97299.53;;;14.07;84.78
74422;BME280;62856;51.446;8.360;2022-09-09T00:58:25;97283.16;;;13.95;85.01
74422;BME280;62856;51.446;8.360;2022-09-09T01:00:53;97285.22;;;13.98;85.27
74422;BME280;62856;51.446;8.360;2022-09-09T01:03:34;97291.28;;;13.95;84.26
74422;BME280;62856;51.446;8.360;2022-09-09T01:08:58;97282.66;;;13.93;85.08
74422;BME280;62856;51.446;8.360;2022-09-09T01:12:14;97292.88;;;13.96;84.53
74422;BME280;62856;51.446;8.360;2022-09-09T01:17:11;97286.91;;;14.11;84.40
74422;BME280;62856;51.446;8.360;2022-09-09T01:27:37;97293.09;;;14.20;82.92
74422;BME280;62856;51.446;8.360;2022-09-09T01:30:09;97285.63;;;14.17;82.93
74422;BME280;62856;51.446;8.360;2022-09-09T01:32:47;97282.25;;;14.20;83.24
74422;BME280;62856;51.446;8.360;2022-09-09T01:38:20;97269.53;;;14.12;83.09
74422;BME280;62856;51.446;8.360;2022-09-09T01:40:46;97291.84;;;14.17;83.46
74422;BME280;62856;51.446;8.360;2022-09-09T01:43:12;97283.56;;;14.14;83.16
74422;BME280;62856;51.446;8.360;2022-09-09T01:45:39;97259.22;;;14.05;82.83
74422;BME280;62856;51.446;8.360;2022-09-09T01:48:04;97261.59;;;14.07;83.25
74422;BME280;62856;51.446;8.360;2022-09-09T01:50:30;97269.06;;;14.10;82.74
74422;BME280;62856;51.446;8.360;2022-09-09T01:52:59;97271.78;;;14.10;83.16
74422;BME280;62856;51.446;8.360;2022-09-09T01:55:37;97279.25;;;14.13;83.65
74422;BME280;62856;51.446;8.360;2022-09-09T01:58:33;97269.50;;;14.20;83.36
74422;BME280;62856;51.446;8.360;2022-09-09T02:04:23;97268.69;;;14.20;83.57
74422;BME280;62856;51.446;8.360;2022-09-09T02:06:55;97266.66;;;14.17;83.78
74422;BME280;62856;51.446;8.360;2022-09-09T02:09:24;97262.50;;;14.19;83.40
74422;BME280;62856;51.446;8.360;2022-09-09T02:12:05;97269.16;;;14.22;83.68
74422;BME280;62856;51.446;8.360;2022-09-09T02:14:36;97269.97;;;14.22;83.68
74422;BME280;62856;51.446;8.360;2022-09-09T02:17:09;97262.34;;;14.16;83.32
74422;BME280;62856;51.446;8.360;2022-09-09T02:19:45;97270.31;;;14.21;84.35
74422;BME280;62856;51.446;8.360;2022-09-09T02:22:16;97272.69;;;14.22;84.10
74422;BME280;62856;51.446;8.360;2022-09-09T02:24:43;97278.63;;;14.16;83.67
74422;BME280;62856;51.446;8.360;2022-09-09T02:27:11;97273.19;;;14.16;84.05
74422;BME280;62856;51.446;8.360;2022-09-09T02:29:41;97288.47;;;14.20;83.58
74422;BME280;62856;51.446;8.360;2022-09-09T02:32:12;97280.25;;;14.08;84.30
74422;BME280;62856;51.446;8.360;2022-09-09T02:34:52;97292.81;;;14.13;84.44
74422;BME280;62856;51.446;8.360;2022-09-09T02:37:21;97296.16;;;14.10;84.27
74422;BME280;62856;51.446;8.360;2022-09-09T02:39:50;97287.44;;;14.04;84.57
74422;BME280;62856;51.446;8.360;2022-09-09T02:42:15;97282.66;;;14.01;84.74
74422;BME280;62856;51.446;8.360;2022-09-09T02:44:41;97293.00;;;14.08;85.01
74422;BME280;62856;51.446;8.360;2022-09-09T02:47:23;97274.69;;;13.96;85.02
74422;BME280;62856;51.446;8.360;2022-09-09T02:49:56;97296.84;;;14.07;84.30
74422;BME280;62856;51.446;8.360;2022-09-09T02:52:34;97268.34;;;13.92;84.35
74422;BME280;62856;51.446;8.360;2022-09-09T02:55:14;97273.25;;;13.99;84.56
74422;BME280;62856;51.446;8.360;2022-09-09T02:57:43;97274.88;;;14.00;84.23
74422;BME280;62856;51.446;8.360;2022-09-09T03:00:12;97291.41;;;14.07;84.01
74422;BME280;62856;51.446;8.360;2022-09-09T03:02:37;97286.00;;;14.07;85.11
74422;BME280;62856;51.446;8.360;2022-09-09T03:05:04;97290.75;;;14.10;84.98
74422;BME280;62856;51.446;8.360;2022-09-09T03:07:30;97272.16;;;14.00;84.41
74422;BME280;62856;51.446;8.360;2022-09-09T03:09:55;97277.38;;;14.05;84.09
74422;BME280;62856;51.446;8.360;2022-09-09T03:12:20;97284.84;;;14.08;84.63
74422;BME280;62856;51.446;8.360;2022-09-09T03:14:46;97295.84;;;14.11;84.19
74422;BME280;62856;51.446;8.360;2022-09-09T03:17:12;97276.13;;;14.02;84.75
74422;BME280;62856;51.446;8.360;2022-09-09T03:19:37;97293.47;;;14.10;84.27
74422;BME280;62856;51.446;8.360;2022-09-09T03:22:03;97299.34;;;14.12;84.33
74422;BME280;62856;51.446;8.360;2022-09-09T03:24:29;97280.91;;;14.05;84.29
74422;BME280;62856;51.446;8.360;2022-09-09T03:26:55;97268.97;;;13.98;85.00
74422;BME280;62856;51.446;8.360;2022-09-09T03:29:21;97279.44;;;14.08;84.87
74422;BME280;62856;51.446;8.360;2022-09-09T03:31:46;97268.31;;;14.01;84.26
74422;BME280;62856;51.446;8.360;2022-09-09T03:34:12;97271.63;;;14.06;84.49
74422;BME280;62856;51.446;8.360;2022-09-09T03:36:39;97290.59;;;14.06;84.97
74422;BME280;62856;51.446;8.360;2022-09-09T03:39:04;97288.69;;;14.07;85.14
74422;BME280;62856;51.446;8.360;2022-09-09T03:41:30;97276.91;;;14.03;85.06
74422;BME280;62856;51.446;8.360;2022-09-09T03:43:56;97260.38;;;13.96;85.06
74422;BME280;62856;51.446;8.360;2022-09-09T03:46:23;97279.63;;;14.03;85.51
74422;BME280;62856;51.446;8.360;2022-09-09T03:48:49;97279.34;;;13.96;84.48
74422;BME280;62856;51.446;8.360;2022-09-09T03:51:15;97283.28;;;13.98;85.45
74422;BME280;62856;51.446;8.360;2022-09-09T03:53:41;97284.09;;;13.99;85.32
74422;BME280;62856;51.446;8.360;2022-09-09T03:56:07;97265.66;;;13.84;84.79
74422;BME280;62856;51.446;8.360;2022-09-09T03:58:33;97281.09;;;13.92;85.87
74422;BME280;62856;51.446;8.360;2022-09-09T04:01:11;97268.22;;;13.80;86.07
74422;BME280;62856;51.446;8.360;2022-09-09T04:03:40;97256.28;;;13.73;85.82
74422;BME280;62856;51.446;8.360;2022-09-09T04:06:07;97259.94;;;13.77;85.00
74422;BME280;62856;51.446;8.360;2022-09-09T04:08:34;97273.63;;;13.89;84.50
74422;BME280;62856;51.446;8.360;2022-09-09T04:11:02;97267.09;;;13.81;84.73
74422;BME280;62856;51.446;8.360;2022-09-09T04:13:32;97291.47;;;13.90;85.03
74422;BME280;62856;51.446;8.360;2022-09-09T04:15:58;97279.38;;;13.79;85.32
74422;BME280;62856;51.446;8.360;2022-09-09T04:18:27;97284.47;;;13.80;85.68
74422;BME280;62856;51.446;8.360;2022-09-09T04:20:56;97282.56;;;13.81;85.27
74422;BME280;62856;51.446;8.360;2022-09-09T04:23:28;97284.94;;;13.82;85.77
74422;BME280;62856;51.446;8.360;2022-09-09T04:25:57;97278.75;;;13.73;85.59
74422;BME280;62856;51.446;8.360;2022-09-09T04:28:25;97287.50;;;13.79;85.26
74422;BME280;62856;51.446;8.360;2022-09-09T04:30:51;97265.72;;;13.67;85.24
74422;BME280;62856;51.446;8.360;2022-09-09T04:33:17;97272.22;;;13.74;86.19
74422;BME280;62856;51.446;8.360;2022-09-09T04:35:48;97277.63;;;13.83;85.20
74422;BME280;62856;51.446;8.360;2022-09-09T04:38:14;97273.28;;;13.82;86.89
74422;BME280;62856;51.446;8.360;2022-09-09T04:40:50;97280.97;;;13.80;86.15
74422;BME280;62856;51.446;8.360;2022-09-09T04:43:17;97279.38;;;13.79;85.81
74422;BME280;62856;51.446;8.360;2022-09-09T04:45:47;97284.31;;;13.77;85.69
74422;BME280;62856;51.446;8.360;2022-09-09T04:48:13;97274.59;;;13.76;86.21
74422;BME280;62856;51.446;8.360;2022-09-09T04:50:38;97279.69;;;13.77;85.63
74422;BME280;62856;51.446;8.360;2022-09-09T04:53:06;97292.13;;;13.87;85.79
74422;BME280;62856;51.446;8.360;2022-09-09T04:55:33;97277.78;;;13.78;86.90
74422;BME280;62856;51.446;8.360;2022-09-09T04:58:03;97298.00;;;13.89;85.36
74422;BME280;62856;51.446;8.360;2022-09-09T05:00:29;97288.75;;;13.90;85.54
74422;BME280;62856;51.446;8.360;2022-09-09T05:02:54;97293.66;;;13.96;85.68
74422;BME280;62856;51.446;8.360;2022-09-09T05:05:19;97281.56;;;13.94;86.12
74422;BME280;62856;51.446;8.360;2022-09-09T05:07:45;97275.00;;;13.95;86.00
74422;BME280;62856;51.446;8.360;2022-09-09T05:10:12;97282.53;;;13.98;85.76
74422;BME280;62856;51.446;8.360;2022-09-09T05:12:39;97271.53;;;13.86;86.26
74422;BME280;62856;51.446;8.360;2022-09-09T05:15:04;97282.53;;;13.98;86.25
74422;BME280;62856;51.446;8.360;2022-09-09T05:17:30;97288.84;;;14.02;86.63
74422;BME280;62856;51.446;8.360;2022-09-09T05:19:55;97285.22;;;13.98;86.37
74422;BME280;62856;51.446;8.360;2022-09-09T05:22:22;97285.38;;;14.01;85.66
74422;BME280;62856;51.446;8.360;2022-09-09T05:24:49;97290.75;;;14.10;84.85
74422;BME280;62856;51.446;8.360;2022-09-09T05:27:17;97285.34;;;14.10;85.42
74422;BME280;62856;51.446;8.360;2022-09-09T05:29:43;97268.41;;;14.13;84.92
74422;BME280;62856;51.446;8.360;2022-09-09T05:32:09;97286.91;;;14.19;84.79
74422;BME280;62856;51.446;8.360;2022-09-09T05:34:35;97278.91;;;14.23;84.08
74422;BME280;62856;51.446;8.360;2022-09-09T05:37:00;97280.47;;;14.24;85.02
74422;BME280;62856;51.446;8.360;2022-09-09T05:39:25;97260.13;;;14.18;84.39
74422;BME280;62856;51.446;8.360;2022-09-09T05:41:51;97287.78;;;14.41;83.94
74422;BME280;62856;51.446;8.360;2022-09-09T05:44:16;97275.22;;;14.36;84.19
74422;BME280;62856;51.446;8.360;2022-09-09T05:46:41;97285.22;;;14.44;84.12
74422;BME280;62856;51.446;8.360;2022-09-09T05:49:07;97269.50;;;14.29;83.54
74422;BME280;62856;51.446;8.360;2022-09-09T05:51:34;97280.25;;;14.46;84.15
74422;BME280;62856;51.446;8.360;2022-09-09T05:53:59;97290.00;;;14.47;83.14
74422;BME280;62856;51.446;8.360;2022-09-09T05:56:27;97281.25;;;14.42;82.97
74422;BME280;62856;51.446;8.360;2022-09-09T05:58:54;97300.00;;;14.55;83.57
74422;BME280;62856;51.446;8.360;2022-09-09T06:01:22;97295.97;;;14.61;83.77
74422;BME280;62856;51.446;8.360;2022-09-09T06:03:49;97282.00;;;14.51;83.81
74422;BME280;62856;51.446;8.360;2022-09-09T06:06:19;97298.69;;;14.61;82.95
74422;BME280;62856;51.446;8.360;2022-09-09T06:08:54;97279.44;;;14.54;83.18
74422;BME280;62856;51.446;8.360;2022-09-09T06:11:24;97293.53;;;14.68;82.88
74422;BME280;62856;51.446;8.360;2022-09-09T06:13:51;97285.41;;;14.68;82.74
74422;BME280;62856;51.446;8.360;2022-09-09T06:16:20;97284.47;;;14.64;83.27
74422;BME280;62856;51.446;8.360;2022-09-09T06:18:49;97300.50;;;14.78;82.58
74422;BME280;62856;51.446;8.360;2022-09-09T06:21:17;97299.91;;;14.72;82.37
74422;BME280;62856;51.446;8.360;2022-09-09T06:23:43;97290.28;;;14.75;82.81
74422;BME280;62856;51.446;8.360;2022-09-09T06:26:15;97301.59;;;14.85;82.32
74422;BME280;62856;51.446;8.360;2022-09-09T06:28:41;97300.50;;;14.78;83.22
74422;BME280;62856;51.446;8.360;2022-09-09T06:31:10;97309.91;;;14.80;83.02
74422;BME280;62856;51.446;8.360;2022-09-09T06:33:41;97316.47;;;14.79;82.78
74422;BME280;62856;51.446;8.360;2022-09-09T06:36:15;97318.50;;;14.82;83.26
74422;BME280;62856;51.446;8.360;2022-09-09T06:38:41;97310.16;;;14.87;82.43
74422;BME280;62856;51.446;8.360;2022-09-09T06:41:09;97327.72;;;14.90;83.34
74422;BME280;62856;51.446;8.360;2022-09-09T06:43:35;97317.56;;;14.78;83.76
74422;BME280;62856;51.446;8.360;2022-09-09T06:46:07;97307.66;;;14.82;83.51
74422;BME280;62856;51.446;8.360;2022-09-09T06:48:34;97303.16;;;14.86;83.16
74422;BME280;62856;51.446;8.360;2022-09-09T06:51:05;97305.22;;;14.89;82.80
74422;BME280;62856;51.446;8.360;2022-09-09T06:53:32;97289.31;;;14.79;82.27
74422;BME280;62856;51.446;8.360;2022-09-09T06:56:02;97312.75;;;14.84;83.13
74422;BME280;62856;51.446;8.360;2022-09-09T06:58:28;97308.81;;;14.73;84.01
74422;BME280;62856;51.446;8.360;2022-09-09T07:01:18;97310.47;;;14.65;85.08
74422;BME280;62856;51.446;8.360;2022-09-09T07:03:48;97288.50;;;14.29;86.00
74422;BME280;62856;51.446;8.360;2022-09-09T07:06:22;97295.03;;;14.19;86.48
74422;BME280;62856;51.446;8.360;2022-09-09T07:08:53;97299.50;;;14.15;87.51
74422;BME280;62856;51.446;8.360;2022-09-09T07:11:20;97311.47;;;14.06;87.66
74422;BME280;62856;51.446;8.360;2022-09-09T07:13:47;97307.06;;;13.93;88.79
74422;BME280;62856;51.446;8.360;2022-09-09T07:16:15;97299.28;;;13.83;89.31
74422;BME280;62856;51.446;8.360;2022-09-09T07:18:41;97316.97;;;13.89;89.14
74422;BME280;62856;51.446;8.360;2022-09-09T07:21:07;97308.38;;;13.87;89.06
74422;BME280;62856;51.446;8.360;2022-09-09T07:23:33;97291.66;;;13.76;88.57
74422;BME280;62856;51.446;8.360;2022-09-09T07:26:02;97314.22;;;13.97;89.03
74422;BME280;62856;51.446;8.360;2022-09-09T07:28:28;97307.19;;;14.05;89.65
74422;BME280;62856;51.446;8.360;2022-09-09T07:30:57;97311.63;;;14.09;90.41
74422;BME280;62856;51.446;8.360;2022-09-09T07:33:24;97306.34;;;14.13;89.85
74422;BME280;62856;51.446;8.360;2022-09-09T07:35:50;97313.19;;;14.27;89.99
74422;BME280;62856;51.446;8.360;2022-09-09T07:38:15;97315.22;;;14.39;88.70
74422;BME280;62856;51.446;8.360;2022-09-09T07:40:41;97305.34;;;14.34;88.29
74422;BME280;62856;51.446;8.360;2022-09-09T07:43:06;97322.97;;;14.58;88.54
74422;BME280;62856;51.446;8.360;2022-09-09T07:45:33;97307.31;;;14.63;88.59
74422;BME280;62856;51.446;8.360;2022-09-09T07:47:59;97330.03;;;14.79;88.24
74422;BME280;62856;51.446;8.360;2022-09-09T07:50:24;97331.09;;;14.87;87.10
74422;BME280;62856;51.446;8.360;2022-09-09T07:52:53;97311.72;;;14.97;86.75
74422;BME280;62856;51.446;8.360;2022-09-09T07:55:20;97322.38;;;15.22;87.11
74422;BME280;62856;51.446;8.360;2022-09-09T07:57:45;97319.97;;;15.50;86.09
74422;BME280;62856;51.446;8.360;2022-09-09T08:00:11;97318.56;;;15.65;83.16
74422;BME280;62856;51.446;8.360;2022-09-09T08:02:37;97318.91;;;15.75;83.84
74422;BME280;62856;51.446;8.360;2022-09-09T08:05:03;97323.66;;;15.66;83.71
74422;BME280;62856;51.446;8.360;2022-09-09T08:07:29;97320.09;;;15.54;85.06
74422;BME280;62856;51.446;8.360;2022-09-09T08:09:55;97325.31;;;15.59;83.00
74422;BME280;62856;51.446;8.360;2022-09-09T08:12:21;97320.63;;;15.47;82.69
74422;BME280;62856;51.446;8.360;2022-09-09T08:14:46;97323.84;;;15.61;82.84
74422;BME280;62856;51.446;8.360;2022-09-09T08:17:12;97346.69;;;15.81;83.09
74422;BME280;62856;51.446;8.360;2022-09-09T08:19:37;97323.41;;;15.59;82.55
74422;BME280;62856;51.446;8.360;2022-09-09T08:22:03;97327.03;;;15.63;82.06
74422;BME280;62856;51.446;8.360;2022-09-09T08:24:28;97344.59;;;15.66;82.21
74422;BME280;62856;51.446;8.360;2022-09-09T08:26:54;97340.53;;;15.72;82.07
74422;BME280;62856;51.446;8.360;2022-09-09T08:29:22;97344.91;;;15.85;81.95
74422;BME280;62856;51.446;8.360;2022-09-09T08:31:51;97350.38;;;15.97;80.62
74422;BME280;62856;51.446;8.360;2022-09-09T08:34:20;97336.56;;;16.02;79.25
74422;BME280;62856;51.446;8.360;2022-09-09T08:36:47;97332.03;;;16.06;77.19
74422;BME280;62856;51.446;8.360;2022-09-09T08:39:16;97343.72;;;16.18;76.78
74422;BME280;62856;51.446;8.360;2022-09-09T08:50:36;97329.44;;;16.54;77.85
74422;BME280;62856;51.446;8.360;2022-09-09T08:53:17;97352.25;;;16.62;77.65
74422;BME280;62856;51.446;8.360;2022-09-09T08:55:50;97339.88;;;16.52;76.26
74422;BME280;62856;51.446;8.360;2022-09-09T08:58:27;97342.81;;;16.47;74.93
74422;BME280;62856;51.446;8.360;2022-09-09T09:03:48;97349.09;;;16.39;75.07
74422;BME280;62856;51.446;8.360;2022-09-09T09:06:23;97374.97;;;16.45;74.78
74422;BME280;62856;51.446;8.360;2022-09-09T09:09:01;97363.06;;;16.38;75.44
74422;BME280;62856;51.446;8.360;2022-09-09T09:11:38;97341.28;;;16.38;75.46
74422;BME280;62856;51.446;8.360;2022-09-09T09:14:20;97362.44;;;16.53;75.04
74422;BME280;62856;51.446;8.360;2022-09-09T09:17:00;97356.88;;;16.61;73.71
74422;BME280;62856;51.446;8.360;2022-09-09T09:19:27;97362.78;;;16.63;72.99
74422;BME280;62856;51.446;8.360;2022-09-09T09:25:02;97365.72;;;16.70;70.63
74422;BME280;62856;51.446;8.360;2022-09-09T09:30:41;97343.44;;;17.28;70.37
74422;BME280;62856;51.446;8.360;2022-09-09T09:33:28;97356.81;;;17.33;68.58
74422;BME280;62856;51.446;8.360;2022-09-09T09:35:56;97334.81;;;17.26;69.52
74422;BME280;62856;51.446;8.360;2022-09-09T09:38:24;97324.66;;;17.51;68.84
74422;BME280;62856;51.446;8.360;2022-09-09T09:40:51;97345.31;;;17.92;67.76
74422;BME280;62856;51.446;8.360;2022-09-09T09:43:37;97334.00;;;18.05;64.57
74422;BME280;62856;51.446;8.360;2022-09-09T09:46:05;97330.91;;;18.07;65.88
74422;BME280;62856;51.446;8.360;2022-09-09T09:48:43;97341.34;;;18.32;65.16
74422;BME280;62856;51.446;8.360;2022-09-09T09:51:13;97317.63;;;18.21;64.17
74422;BME280;62856;51.446;8.360;2022-09-09T09:53:41;97327.75;;;18.20;61.10
74422;BME280;62856;51.446;8.360;2022-09-09T09:56:09;97331.44;;;18.12;65.03
74422;BME280;62856;51.446;8.360;2022-09-09T10:01:39;97341.31;;;18.17;62.54
74422;BME280;62856;51.446;8.360;2022-09-09T10:06:41;97337.28;;;18.26;63.55
74422;BME280;62856;51.446;8.360;2022-09-09T10:09:24;97347.84;;;18.28;63.95
74422;BME280;62856;51.446;8.360;2022-09-09T10:15:02;97321.50;;;18.20;63.39
74422;BME280;62856;51.446;8.360;2022-09-09T10:20:37;97339.97;;;18.54;61.10
74422;BME280;62856;51.446;8.360;2022-09-09T10:26:28;97324.13;;;18.16;62.19
74422;BME280;62856;51.446;8.360;2022-09-09T10:29:23;97343.66;;;18.03;63.57
74422;BME280;62856;51.446;8.360;2022-09-09T10:34:56;97342.84;;;17.87;62.10
74422;BME280;62856;51.446;8.360;2022-09-09T10:40:27;97320.03;;;17.79;63.85
74422;BME280;62856;51.446;8.360;2022-09-09T10:43:09;97335.69;;;17.82;64.24
74422;BME280;62856;51.446;8.360;2022-09-09T10:45:54;97338.84;;;17.84;64.99
74422;BME280;62856;51.446;8.360;2022-09-09T10:51:36;97332.59;;;17.84;64.41
74422;BME280;62856;51.446;8.360;2022-09-09T10:57:04;97331.13;;;17.86;64.53
74422;BME280;62856;51.446;8.360;2022-09-09T10:59:38;97319.69;;;17.96;64.31
74422;BME280;62856;51.446;8.360;2022-09-09T11:02:14;97333.69;;;18.38;62.15
74422;BME280;62856;51.446;8.360;2022-09-09T11:04:53;97330.63;;;18.55;62.52
74422;BME280;62856;51.446;8.360;2022-09-09T11:07:36;97339.75;;;18.78;62.86
74422;BME280;62856;51.446;8.360;2022-09-09T11:10:11;97342.59;;;18.82;59.81
74422;BME280;62856;51.446;8.360;2022-09-09T11:12:39;97337.59;;;18.53;61.53
74422;BME280;62856;51.446;8.360;2022-09-09T11:15:17;97328.72;;;18.28;62.57
74422;BME280;62856;51.446;8.360;2022-09-09T11:17:50;97325.66;;;18.29;62.61
74422;BME280;62856;51.446;8.360;2022-09-09T11:20:18;97328.34;;;18.42;62.48
74422;BME280;62856;51.446;8.360;2022-09-09T11:22:48;97327.38;;;18.65;61.72
74422;BME280;62856;51.446;8.360;2022-09-09T11:25:30;97326.63;;;18.84;61.29
74422;BME280;62856;51.446;8.360;2022-09-09T11:28:13;97323.47;;;19.16;59.08
74422;BME280;62856;51.446;8.360;2022-09-09T11:38:52;97330.63;;;19.56;59.69
74422;BME280;62856;51.446;8.360;2022-09-09T11:41:20;97318.91;;;19.74;57.96
74422;BME280;62856;51.446;8.360;2022-09-09T11:43:52;97306.47;;;19.58;57.22
74422;BME280;62856;51.446;8.360;2022-09-09T11:46:32;97294.78;;;19.61;59.91
74422;BME280;62856;51.446;8.360;2022-09-09T11:49:01;97329.88;;;19.97;58.19
74422;BME280;62856;51.446;8.360;2022-09-09T11:51:29;97305.88;;;19.87;55.25
74422;BME280;62856;51.446;8.360;2022-09-09T11:54:25;97303.69;;;19.96;54.05
74422;BME280;62856;51.446;8.360;2022-09-09T11:56:48;97311.94;;;20.18;55.44
74422;BME280;62856;51.446;8.360;2022-09-09T11:59:40;97313.97;;;20.44;53.80
74422;BME280;62856;51.446;8.360;2022-09-09T12:02:23;97321.22;;;20.33;54.78
74422;BME280;62856;51.446;8.360;2022-09-09T12:04:56;97306.66;;;20.74;55.53
74422;BME280;62856;51.446;8.360;2022-09-09T12:12:43;97315.09;;;20.40;54.48
74422;BME280;62856;51.446;8.360;2022-09-09T12:17:57;97309.66;;;23.45;45.72
74422;BME280;62856;51.446;8.360;2022-09-09T12:23:25;97314.31;;;24.52;40.63
74422;BME280;62856;51.446;8.360;2022-09-09T12:28:56;97307.28;;;25.07;40.15
74422;BME280;62856;51.446;8.360;2022-09-09T12:34:23;97291.50;;;24.93;39.65
74422;BME280;62856;51.446;8.360;2022-09-09T12:36:57;97307.25;;;24.68;37.82
74422;BME280;62856;51.446;8.360;2022-09-09T12:39:31;97317.22;;;23.04;41.06
74422;BME280;62856;51.446;8.360;2022-09-09T12:41:58;97303.03;;;22.11;42.27
74422;BME280;62856;51.446;8.360;2022-09-09T12:44:25;97297.38;;;21.64;43.83
74422;BME280;62856;51.446;8.360;2022-09-09T12:46:53;97300.09;;;21.94;44.05
74422;BME280;62856;51.446;8.360;2022-09-09T12:49:32;97288.16;;;23.03;40.83
74422;BME280;62856;51.446;8.360;2022-09-09T12:52:08;97282.53;;;22.89;41.56
74422;BME280;62856;51.446;8.360;2022-09-09T12:54:44;97250.91;;;22.59;43.39
74422;BME280;62856;51.446;8.360;2022-09-09T12:57:12;97276.38;;;22.12;44.56
74422;BME280;62856;51.446;8.360;2022-09-09T12:59:43;97256.63;;;21.33;44.99
74422;BME280;62856;51.446;8.360;2022-09-09T13:02:22;97290.00;;;20.86;46.99
74422;BME280;62856;51.446;8.360;2022-09-09T13:04:48;97296.75;;;20.92;47.75
74422;BME280;62856;51.446;8.360;2022-09-09T13:07:16;97269.28;;;21.74;44.79
74422;BME280;62856;51.446;8.360;2022-09-09T13:09:42;97282.34;;;21.55;45.22
74422;BME280;62856;51.446;8.360;2022-09-09T13:12:22;97263.13;;;21.84;45.56
74422;BME280;62856;51.446;8.360;2022-09-09T13:14:53;97281.22;;;21.26;45.73
74422;BME280;62856;51.446;8.360;2022-09-09T13:17:21;97292.81;;;20.90;48.67
74422;BME280;62856;51.446;8.360;2022-09-09T13:19:48;97279.97;;;20.45;49.06
74422;BME280;62856;51.446;8.360;2022-09-09T13:22:29;97294.75;;;20.18;49.92
74422;BME280;62856;51.446;8.360;2022-09-09T13:25:27;97300.97;;;19.96;50.67
74422;BME280;62856;51.446;8.360;2022-09-09T13:27:59;97273.47;;;19.89;50.03
74422;BME280;62856;51.446;8.360;2022-09-09T13:30:35;97283.94;;;20.06;50.93
74422;BME280;62856;51.446;8.360;2022-09-09T13:35:35;97273.63;;;20.18;51.52
74422;BME280;62856;51.446;8.360;2022-09-09T13:38:08;97277.28;;;20.26;50.41
74422;BME280;62856;51.446;8.360;2022-09-09T13:40:34;97258.03;;;20.00;50.64
74422;BME280;62856;51.446;8.360;2022-09-09T13:43:03;97255.63;;;20.89;50.12
74422;BME280;62856;51.446;8.360;2022-09-09T13:45:28;97247.47;;;22.25;46.58
74422;BME280;62856;51.446;8.360;2022-09-09T13:47:55;97259.09;;;23.06;44.56
74422;BME280;62856;51.446;8.360;2022-09-09T13:50:30;97264.53;;;23.67;44.07
74422;BME280;62856;51.446;8.360;2022-09-09T13:52:57;97252.28;;;22.86;43.07
74422;BME280;62856;51.446;8.360;2022-09-09T13:55:27;97260.56;;;22.42;44.06
74422;BME280;62856;51.446;8.360;2022-09-09T13:57:58;97229.78;;;21.49;46.71
74422;BME280;62856;51.446;8.360;2022-09-09T14:00:26;97254.88;;;20.92;48.60
74422;BME280;62856;51.446;8.360;2022-09-09T14:02:53;97252.66;;;20.75;49.11
74422;BME280;62856;51.446;8.360;2022-09-09T14:05:21;97252.44;;;20.87;48.98
74422;BME280;62856;51.446;8.360;2022-09-09T14:07:48;97268.09;;;20.86;48.81
74422;BME280;62856;51.446;8.360;2022-09-09T14:10:13;97253.56;;;20.33;48.63
74422;BME280;62856;51.446;8.360;2022-09-09T14:12:42;97257.56;;;19.94;49.96
74422;BME280;62856;51.446;8.360;2022-09-09T14:15:09;97258.81;;;19.78;51.05
74422;BME280;62856;51.446;8.360;2022-09-09T14:17:36;97252.16;;;19.79;51.48
74422;BME280;62856;51.446;8.360;2022-09-09T14:20:06;97279.31;;;20.10;51.91
74422;BME280;62856;51.446;8.360;2022-09-09T14:22:35;97273.09;;;20.81;50.41
74422;BME280;62856;51.446;8.360;2022-09-09T14:25:01;97264.75;;;21.56;49.22
74422;BME280;62856;51.446;8.360;2022-09-09T14:27:27;97231.09;;;21.95;46.70
74422;BME280;62856;51.446;8.360;2022-09-09T14:29:52;97261.66;;;22.30;46.44
74422;BME280;62856;51.446;8.360;2022-09-09T14:32:18;97248.13;;;22.11;46.74
74422;BME280;62856;51.446;8.360;2022-09-09T14:34:46;97222.25;;;22.09;45.43
74422;BME280;62856;51.446;8.360;2022-09-09T14:37:15;97247.03;;;21.50;47.46
74422;BME280;62856;51.446;8.360;2022-09-09T14:39:40;97236.94;;;21.24;47.87
74422;BME280;62856;51.446;8.360;2022-09-09T14:42:09;97246.44;;;21.63;47.19
74422;BME280;62856;51.446;8.360;2022-09-09T14:44:36;97229.03;;;21.82;46.98
74422;BME280;62856;51.446;8.360;2022-09-09T14:47:03;97250.34;;;21.99;46.44
74422;BME280;62856;51.446;8.360;2022-09-09T14:49:29;97233.06;;;21.28;46.81
74422;BME280;62856;51.446;8.360;2022-09-09T14:51:54;97245.53;;;20.96;48.83
74422;BME280;62856;51.446;8.360;2022-09-09T14:54:19;97254.38;;;20.60;49.90
74422;BME280;62856;51.446;8.360;2022-09-09T14:56:46;97246.53;;;20.33;49.38
74422;BME280;62856;51.446;8.360;2022-09-09T14:59:12;97246.47;;;20.29;49.58
74422;BME280;62856;51.446;8.360;2022-09-09T15:01:38;97250.09;;;20.37;50.13
74422;BME280;62856;51.446;8.360;2022-09-09T15:04:05;97248.69;;;20.46;50.36
74422;BME280;62856;51.446;8.360;2022-09-09T15:06:33;97246.38;;;20.48;49.37